Time;durP1;ratioP1;P1;durP2;ratioP2;P2;SDS_P1;SDS_P2;PMS_P1;PMS_P2;Temp;Humidity;BMP_temperature;BMP_pressure;BME280_temperature;BME280_humidity;BME280_pressure;Samples;Min_cycle;Max_cycle;Signal;HPM_P1;HPM_P2
2022/07/26 00:00:18;;;;;;;12.60;10.30;;;21.80;99.90;;;;;;5059388;28;20056;-71
2022/07/26 00:02:45;;;;;;;12.68;9.98;;;21.80;99.90;;;;;;5053674;28;20044;-71
2022/07/26 00:05:17;;;;;;;12.90;11.23;;;21.90;99.90;;;;;;5050265;28;20389;-70
2022/07/26 00:07:49;;;;;;;14.55;11.23;;;22.00;99.90;;;;;;5056032;28;20415;-70
2022/07/26 00:10:21;;;;;;;12.77;10.18;;;22.00;99.90;;;;;;5053466;28;20045;-70
2022/07/26 00:12:52;;;;;;;14.30;10.55;;;22.00;99.90;;;;;;5050899;28;20052;-71
2022/07/26 00:15:24;;;;;;;12.13;10.93;;;22.00;99.90;;;;;;5058193;28;20051;-71
2022/07/26 00:17:56;;;;;;;12.35;11.05;;;21.90;99.90;;;;;;5065422;28;20049;-70
2022/07/26 00:20:28;;;;;;;14.40;12.05;;;21.80;99.90;;;;;;5042868;28;20086;-71
2022/07/26 00:23:00;;;;;;;12.27;10.98;;;21.90;99.90;;;;;;5057593;28;20036;-71
2022/07/26 00:25:32;;;;;;;11.38;9.98;;;21.80;99.90;;;;;;5044726;28;20037;-70
2022/07/26 00:28:04;;;;;;;11.25;10.05;;;21.90;99.90;;;;;;5059613;28;20407;-70
2022/07/26 00:30:36;;;;;;;12.10;9.82;;;21.80;99.90;;;;;;5068706;28;20051;-71
2022/07/26 00:33:07;;;;;;;11.95;10.45;;;21.80;99.90;;;;;;5049545;28;20053;-71
2022/07/26 00:35:39;;;;;;;10.65;9.50;;;21.70;99.90;;;;;;5059564;28;20079;-71
2022/07/26 00:38:11;;;;;;;11.82;10.63;;;21.70;99.90;;;;;;5060119;28;20134;-71
2022/07/26 00:40:43;;;;;;;11.43;10.18;;;21.70;99.90;;;;;;5056414;28;20037;-70
2022/07/26 00:43:10;;;;;;;12.43;10.13;;;21.70;99.90;;;;;;5069427;28;20048;-71
2022/07/26 00:45:42;;;;;;;13.90;9.85;;;21.70;99.90;;;;;;5069741;28;20040;-70
2022/07/26 00:48:13;;;;;;;9.77;8.77;;;21.70;99.90;;;;;;5054236;28;20579;-71
2022/07/26 00:50:45;;;;;;;11.93;8.10;;;21.80;99.90;;;;;;5066780;28;20056;-70
2022/07/26 00:53:19;;;;;;;9.27;8.00;;;21.80;99.90;;;;;;5074735;28;20057;-70
2022/07/26 00:55:51;;;;;;;11.02;9.50;;;21.80;99.90;;;;;;5052302;28;20051;-70
2022/07/26 00:58:23;;;;;;;10.45;8.82;;;21.90;99.90;;;;;;5059133;28;20045;-71
2022/07/26 01:00:55;;;;;;;10.20;9.23;;;21.90;99.90;;;;;;5034263;28;20048;-71
2022/07/26 01:03:27;;;;;;;9.90;8.90;;;22.00;99.90;;;;;;5081328;28;20044;-70
2022/07/26 01:05:53;;;;;;;11.27;9.73;;;21.90;99.90;;;;;;5063562;28;20423;-70
2022/07/26 01:08:25;;;;;;;11.77;9.38;;;21.80;99.90;;;;;;5053889;28;20148;-70
2022/07/26 01:10:57;;;;;;;10.10;9.10;;;21.60;99.90;;;;;;5067181;28;20815;-71
2022/07/26 01:13:29;;;;;;;9.10;8.20;;;21.50;99.90;;;;;;5061834;28;20059;-70
2022/07/26 01:16:02;;;;;;;10.35;7.72;;;21.40;99.90;;;;;;5054823;28;20072;-70
2022/07/26 01:18:33;;;;;;;9.18;8.27;;;21.30;99.90;;;;;;5063067;28;20102;-71
2022/07/26 01:21:08;;;;;;;7.97;7.15;;;21.30;99.90;;;;;;5058814;28;20534;-70
2022/07/26 01:23:41;;;;;;;7.57;6.88;;;21.30;99.90;;;;;;5072964;28;20049;-70
2022/07/26 01:26:13;;;;;;;8.25;6.10;;;21.40;99.90;;;;;;5047567;28;20068;-70
2022/07/26 01:28:48;;;;;;;8.43;5.68;;;21.40;99.90;;;;;;5056032;28;20037;-71
2022/07/26 01:31:19;;;;;;;7.05;6.30;;;21.40;99.90;;;;;;5065563;28;20044;-71
2022/07/26 01:33:51;;;;;;;9.70;5.57;;;21.50;99.90;;;;;;5058318;28;20040;-71
2022/07/26 01:36:23;;;;;;;6.18;5.28;;;21.50;99.90;;;;;;5054203;28;20043;-71
2022/07/26 01:38:50;;;;;;;7.50;5.85;;;21.50;99.90;;;;;;5066752;28;20048;-71
2022/07/26 01:41:22;;;;;;;7.78;5.95;;;21.40;99.90;;;;;;5057836;28;20041;-70
2022/07/26 01:43:53;;;;;;;7.10;5.75;;;21.30;99.90;;;;;;5056543;28;20048;-70
2022/07/26 01:46:25;;;;;;;11.68;6.20;;;21.30;99.90;;;;;;5067690;28;20400;-70
2022/07/26 01:48:52;;;;;;;8.02;5.95;;;21.30;99.90;;;;;;5057903;28;20045;-70
2022/07/26 01:51:24;;;;;;;7.28;5.97;;;21.20;99.90;;;;;;5052825;28;20132;-71
2022/07/26 01:53:56;;;;;;;9.30;5.65;;;21.20;99.90;;;;;;5060315;28;20397;-70
2022/07/26 01:56:27;;;;;;;8.23;5.47;;;21.10;99.90;;;;;;5054462;28;20471;-70
2022/07/26 01:58:59;;;;;;;5.57;5.05;;;21.10;99.90;;;;;;5068430;28;20053;-70
2022/07/26 02:01:31;;;;;;;7.93;5.50;;;21.00;99.90;;;;;;5059549;28;20060;-71
2022/07/26 02:03:58;;;;;;;7.57;5.20;;;20.90;99.90;;;;;;5069763;28;20045;-71
2022/07/26 02:06:29;;;;;;;8.82;6.05;;;20.80;99.90;;;;;;5057343;28;20040;-71
2022/07/26 02:09:01;;;;;;;8.00;4.68;;;20.70;99.90;;;;;;5074382;28;20048;-70
2022/07/26 02:11:33;;;;;;;7.72;5.85;;;20.70;99.90;;;;;;5057098;28;20103;-70
2022/07/26 02:14:04;;;;;;;7.85;5.03;;;20.60;99.90;;;;;;5060516;28;20057;-70
2022/07/26 02:16:31;;;;;;;7.75;4.72;;;20.60;99.90;;;;;;5072827;28;20048;-70
2022/07/26 02:19:03;;;;;;;6.82;5.30;;;20.60;99.90;;;;;;5050471;28;20869;-69
2022/07/26 02:21:35;;;;;;;5.50;4.45;;;20.60;99.90;;;;;;5060661;28;20048;-71
2022/07/26 02:24:07;;;;;;;5.00;4.30;;;20.60;99.90;;;;;;5065719;28;20047;-68
2022/07/26 02:26:38;;;;;;;5.55;4.50;;;20.60;99.90;;;;;;5054556;28;20063;-69
2022/07/26 02:29:10;;;;;;;6.50;4.68;;;20.50;99.90;;;;;;5061300;28;20127;-71
2022/07/26 02:31:42;;;;;;;6.35;4.22;;;20.40;99.90;;;;;;5065882;28;20048;-71
2022/07/26 02:34:14;;;;;;;7.25;4.70;;;20.30;99.90;;;;;;5056164;28;20052;-71
2022/07/26 02:36:45;;;;;;;8.50;5.18;;;20.20;99.90;;;;;;5071380;28;20037;-70
2022/07/26 02:39:12;;;;;;;5.43;4.65;;;20.10;99.90;;;;;;5052083;28;20412;-70
2022/07/26 02:41:44;;;;;;;5.95;4.28;;;20.10;99.90;;;;;;5060801;28;20036;-70
2022/07/26 02:44:16;;;;;;;5.95;4.30;;;20.10;99.90;;;;;;5055401;28;20037;-71
2022/07/26 02:46:48;;;;;;;5.25;4.53;;;20.00;99.90;;;;;;5052553;28;20037;-69
2022/07/26 02:49:15;;;;;;;5.82;4.28;;;20.00;99.90;;;;;;5060923;28;20064;-70
2022/07/26 02:51:42;;;;;;;5.60;4.22;;;19.90;99.90;;;;;;5056864;28;20135;-71
2022/07/26 02:54:14;;;;;;;4.90;4.40;;;19.90;99.90;;;;;;5050584;28;20068;-69
2022/07/26 02:56:46;;;;;;;5.15;4.22;;;20.00;99.90;;;;;;5059411;28;20044;-71
2022/07/26 02:59:17;;;;;;;5.03;4.32;;;19.90;99.90;;;;;;5067445;28;20056;-70
2022/07/26 03:01:49;;;;;;;5.30;4.40;;;19.90;99.90;;;;;;5052067;28;20421;-70
2022/07/26 03:04:21;;;;;;;5.38;4.55;;;19.90;99.90;;;;;;5058620;28;20071;-70
2022/07/26 03:06:52;;;;;;;7.72;4.82;;;19.90;99.90;;;;;;5038126;28;20036;-69
2022/07/26 03:09:24;;;;;;;7.47;5.10;;;19.90;99.90;;;;;;5055013;28;20102;-70
2022/07/26 03:11:56;;;;;;;4.85;4.38;;;19.80;99.90;;;;;;5059429;28;20051;-70
2022/07/26 03:14:28;;;;;;;7.75;4.72;;;19.90;99.90;;;;;;5048803;28;20044;-70
2022/07/26 03:16:59;;;;;;;6.35;5.10;;;19.90;99.90;;;;;;5060562;28;20062;-70
2022/07/26 03:19:31;;;;;;;9.23;5.30;;;19.90;99.90;;;;;;5055584;28;20045;-70
2022/07/26 03:22:03;;;;;;;6.55;4.65;;;20.00;99.90;;;;;;5066336;28;20060;-70
2022/07/26 03:24:35;;;;;;;8.88;4.40;;;20.00;99.90;;;;;;5055648;28;20069;-70
2022/07/26 03:27:06;;;;;;;5.97;4.68;;;20.00;99.90;;;;;;5056269;28;20041;-70
2022/07/26 03:29:38;;;;;;;8.35;4.85;;;20.00;99.90;;;;;;5053814;28;20047;-70
2022/07/26 03:32:10;;;;;;;5.88;4.75;;;20.00;99.90;;;;;;5044046;28;20048;-68
2022/07/26 03:34:42;;;;;;;5.65;4.75;;;19.90;99.90;;;;;;5054551;28;20063;-70
2022/07/26 03:37:14;;;;;;;6.57;5.35;;;19.90;99.90;;;;;;5057072;28;20051;-70
2022/07/26 03:39:46;;;;;;;7.43;5.18;;;19.90;99.90;;;;;;5058311;28;20037;-70
2022/07/26 03:42:12;;;;;;;6.97;5.25;;;19.90;99.90;;;;;;5035250;28;20049;-70
2022/07/26 03:44:44;;;;;;;8.30;4.82;;;19.90;99.90;;;;;;5055188;28;20052;-70
2022/07/26 03:47:16;;;;;;;4.93;4.20;;;19.90;99.90;;;;;;5054950;28;20044;-70
2022/07/26 03:49:47;;;;;;;7.53;4.63;;;20.00;99.90;;;;;;5046584;28;20045;-71
2022/07/26 03:52:19;;;;;;;4.95;4.35;;;20.10;99.90;;;;;;5078149;28;20041;-70
2022/07/26 03:54:51;;;;;;;4.78;4.20;;;20.10;99.90;;;;;;5053892;28;20049;-70
2022/07/26 03:57:22;;;;;;;6.78;4.15;;;20.20;99.90;;;;;;5058316;28;20053;-70
2022/07/26 03:59:54;;;;;;;4.65;3.33;;;20.20;99.90;;;;;;5060886;28;20044;-70
2022/07/26 04:02:26;;;;;;;5.18;3.53;;;20.30;99.90;;;;;;5065321;28;20067;-70
2022/07/26 04:04:58;;;;;;;4.75;3.45;;;20.30;99.90;;;;;;5041253;28;20037;-70
2022/07/26 04:07:29;;;;;;;4.03;3.63;;;20.30;99.90;;;;;;5068506;28;20045;-70
2022/07/26 04:10:01;;;;;;;5.72;3.60;;;20.30;99.90;;;;;;5049557;28;20523;-68
2022/07/26 04:12:33;;;;;;;7.03;3.78;;;20.30;99.90;;;;;;5048045;28;20053;-70
2022/07/26 04:15:05;;;;;;;6.30;3.45;;;20.30;99.90;;;;;;5044201;28;20056;-70
2022/07/26 04:17:40;;;;;;;4.67;3.33;;;20.20;99.90;;;;;;5055146;28;20051;-70
2022/07/26 04:20:12;;;;;;;8.38;3.28;;;20.20;99.90;;;;;;5056301;28;20135;-70
2022/07/26 04:22:44;;;;;;;6.00;3.80;;;20.20;99.90;;;;;;5052399;28;20037;-71
2022/07/26 04:25:17;;;;;;;4.35;2.70;;;20.30;99.90;;;;;;5060300;28;20044;-72
2022/07/26 04:27:49;;;;;;;5.72;3.63;;;20.20;99.90;;;;;;5052296;28;20116;-70
2022/07/26 04:30:21;;;;;;;4.05;3.45;;;20.10;99.90;;;;;;5048141;28;20435;-68
2022/07/26 04:32:52;;;;;;;3.72;2.88;;;20.00;99.90;;;;;;5051420;28;20079;-70
2022/07/26 04:35:24;;;;;;;5.60;2.70;;;19.90;99.90;;;;;;5052978;28;20065;-73
2022/07/26 04:37:56;;;;;;;5.80;3.47;;;19.80;99.90;;;;;;5052291;28;20414;-73
2022/07/26 04:40:32;;;;;;;4.10;2.80;;;19.70;99.90;;;;;;5053945;28;20048;-73
2022/07/26 04:43:03;;;;;;;5.40;3.35;;;19.50;99.90;;;;;;5054010;28;20542;-71
2022/07/26 04:45:36;;;;;;;4.82;3.08;;;19.30;99.90;;;;;;5086492;23;20484;31
2022/07/26 04:48:08;;;;;;;3.00;2.60;;;19.20;99.90;;;;;;5036419;28;20497;-73
2022/07/26 04:50:40;;;;;;;3.35;2.60;;;19.10;99.90;;;;;;5020585;28;20587;-73
2022/07/26 04:53:13;;;;;;;3.10;2.60;;;19.00;99.90;;;;;;5019618;28;20053;-73
2022/07/26 04:55:45;;;;;;;8.00;3.65;;;18.90;99.90;;;;;;5040038;28;20551;-73
2022/07/26 04:58:16;;;;;;;5.18;2.17;;;18.80;99.90;;;;;;5045317;28;20447;-73
2022/07/26 05:00:48;;;;;;;3.55;2.20;;;18.80;99.90;;;;;;5055078;28;20044;-72
2022/07/26 05:03:23;;;;;;;3.63;2.75;;;18.70;99.90;;;;;;5054698;28;20045;-73
2022/07/26 05:05:55;;;;;;;5.05;2.40;;;18.70;99.90;;;;;;5040290;28;20612;-73
2022/07/26 05:08:27;;;;;;;3.25;2.40;;;18.70;99.90;;;;;;5038422;28;20404;-73
2022/07/26 05:10:58;;;;;;;4.72;2.70;;;18.80;99.90;;;;;;5055156;28;20048;-73
2022/07/26 05:13:30;;;;;;;6.57;2.55;;;18.80;99.90;;;;;;5059005;28;20380;-73
2022/07/26 05:16:02;;;;;;;4.57;2.50;;;18.80;99.90;;;;;;5061080;28;20087;-73
2022/07/26 05:18:34;;;;;;;4.90;2.60;;;18.70;99.90;;;;;;5062020;28;20045;-73
2022/07/26 05:21:05;;;;;;;5.40;2.30;;;18.70;99.90;;;;;;5051557;28;20056;-72
2022/07/26 05:23:37;;;;;;;4.78;2.55;;;18.60;99.90;;;;;;5058199;28;20405;-73
2022/07/26 05:26:10;;;;;;;5.93;2.72;;;18.60;99.90;;;;;;5034021;28;20033;-73
2022/07/26 05:28:42;;;;;;;;;;;18.60;99.90;;;;;;5053964;28;20064;-73
2022/07/26 05:31:14;;;;;;;5.00;2.63;;;18.60;99.90;;;;;;5037455;28;20283;-73
2022/07/26 05:33:46;;;;;;;5.38;3.03;;;18.70;99.90;;;;;;5062417;28;20532;-73
2022/07/26 05:36:18;;;;;;;4.53;2.85;;;18.60;99.90;;;;;;5058861;28;20058;-72
2022/07/26 05:38:50;;;;;;;4.75;2.90;;;18.60;99.90;;;;;;5060175;28;20056;-73
2022/07/26 05:41:22;;;;;;;4.78;2.80;;;18.60;99.90;;;;;;5045123;28;20047;-73
2022/07/26 05:43:54;;;;;;;8.00;2.40;;;18.60;99.90;;;;;;5064137;28;20036;-73
2022/07/26 05:46:25;;;;;;;3.10;2.47;;;18.60;99.90;;;;;;5048514;28;20028;-73
2022/07/26 05:48:57;;;;;;;4.45;2.65;;;18.60;99.90;;;;;;5060524;28;20078;-73
2022/07/26 05:51:29;;;;;;;4.88;2.80;;;18.60;99.90;;;;;;5041029;28;20037;-72
2022/07/26 05:54:01;;;;;;;4.00;2.85;;;18.60;99.90;;;;;;5064684;28;20083;-72
2022/07/26 05:56:33;;;;;;;3.35;2.75;;;18.70;99.90;;;;;;5059965;28;20064;-72
2022/07/26 05:59:04;;;;;;;3.97;2.90;;;18.70;99.90;;;;;;5056500;28;20044;-73
2022/07/26 06:01:36;;;;;;;3.65;2.60;;;18.70;99.90;;;;;;5061725;28;20037;-73
2022/07/26 06:04:09;;;;;;;4.05;2.85;;;18.80;99.90;;;;;;5041847;28;20036;-72
2022/07/26 06:06:40;;;;;;;6.60;2.78;;;18.70;99.90;;;;;;5054263;28;20043;-72
2022/07/26 06:09:12;;;;;;;4.13;2.80;;;18.70;99.90;;;;;;5040564;28;20409;-72
2022/07/26 06:11:44;;;;;;;4.07;3.13;;;18.60;99.90;;;;;;5034866;28;20064;-72
2022/07/26 06:14:15;;;;;;;4.88;3.15;;;18.70;99.90;;;;;;5041525;28;20048;-72
2022/07/26 06:16:48;;;;;;;4.28;3.22;;;18.60;99.90;;;;;;5014985;28;20252;-72
2022/07/26 06:19:20;;;;;;;5.50;2.88;;;18.70;99.90;;;;;;5063825;28;20044;-72
2022/07/26 06:21:51;;;;;;;5.10;3.40;;;18.60;99.90;;;;;;5053439;28;20049;-72
2022/07/26 06:24:23;;;;;;;6.95;3.38;;;18.70;99.90;;;;;;5054109;28;20045;-72
2022/07/26 06:26:56;;;;;;;6.70;3.83;;;18.70;99.90;;;;;;5040610;28;20041;-72
2022/07/26 06:29:27;;;;;;;3.77;2.80;;;18.80;99.90;;;;;;5033395;28;20048;-72
2022/07/26 06:31:59;;;;;;;3.55;3.10;;;18.80;99.90;;;;;;5030869;28;20044;-72
2022/07/26 06:34:31;;;;;;;4.63;2.65;;;18.90;99.90;;;;;;5051341;28;20041;-72
2022/07/26 06:36:58;;;;;;;5.40;2.60;;;18.90;99.90;;;;;;5034106;28;20124;-72
2022/07/26 06:39:31;;;;;;;4.82;2.88;;;19.00;99.90;;;;;;5043067;28;20075;-72
2022/07/26 06:42:02;;;;;;;7.57;2.50;;;19.00;99.90;;;;;;5028873;28;20128;-72
2022/07/26 06:44:35;;;;;;;3.40;2.83;;;19.00;99.90;;;;;;5042215;28;20098;-73
2022/07/26 06:47:01;;;;;;;3.80;2.38;;;19.10;99.90;;;;;;5064891;28;20047;-73
2022/07/26 06:49:33;;;;;;;5.20;2.47;;;19.10;99.90;;;;;;5055541;28;20045;-72
2022/07/26 06:52:00;;;;;;;4.40;2.75;;;19.10;99.90;;;;;;5062198;28;20037;-73
2022/07/26 06:54:31;;;;;;;4.07;2.60;;;19.20;99.90;;;;;;5054105;28;20059;-73
2022/07/26 06:57:03;;;;;;;6.03;2.65;;;19.20;99.90;;;;;;5059115;28;20476;-72
2022/07/26 06:59:35;;;;;;;3.20;2.38;;;19.30;99.90;;;;;;5050381;28;20057;-73
2022/07/26 07:02:03;;;;;;;3.97;2.70;;;19.30;99.90;;;;;;5056583;28;20052;-73
2022/07/26 07:04:34;;;;;;;4.23;2.70;;;19.30;99.90;;;;;;5034535;28;20120;-73
2022/07/26 07:07:07;;;;;;;3.97;2.45;;;19.30;99.90;;;;;;5054114;28;20284;-72
2022/07/26 07:09:39;;;;;;;3.60;2.50;;;19.30;99.90;;;;;;5038989;28;20515;-72
2022/07/26 07:12:07;;;;;;;4.25;3.28;;;19.30;99.90;;;;;;5039674;28;20051;-73
2022/07/26 07:14:38;;;;;;;3.15;2.33;;;19.40;99.90;;;;;;5052151;28;20041;-72
2022/07/26 07:17:11;;;;;;;4.40;2.42;;;19.60;99.90;;;;;;5055868;28;20138;-72
2022/07/26 07:19:43;;;;;;;3.17;2.50;;;19.70;99.90;;;;;;5062645;28;20049;-72
2022/07/26 07:22:14;;;;;;;3.30;2.10;;;19.70;99.90;;;;;;5061269;28;20193;-72
2022/07/26 07:24:46;;;;;;;4.53;2.03;;;19.60;99.90;;;;;;5035244;28;20042;-72
2022/07/26 07:27:18;;;;;;;3.28;2.05;;;19.60;99.90;;;;;;5049874;28;20041;-72
2022/07/26 07:29:50;;;;;;;3.03;2.33;;;19.70;99.90;;;;;;5050356;28;20037;-72
2022/07/26 07:32:21;;;;;;;3.53;2.60;;;19.80;99.90;;;;;;5033778;28;20045;-72
2022/07/26 07:34:53;;;;;;;2.95;2.15;;;19.80;99.90;;;;;;5035495;28;20041;-72
2022/07/26 07:37:25;;;;;;;3.05;2.13;;;19.90;99.90;;;;;;5037558;28;20053;-73
2022/07/26 07:39:57;;;;;;;2.90;2.20;;;19.90;99.90;;;;;;5059857;28;20426;-72
2022/07/26 07:42:28;;;;;;;3.85;2.17;;;19.90;99.90;;;;;;5049618;28;20044;-72
2022/07/26 07:45:00;;;;;;;4.78;2.25;;;19.90;99.90;;;;;;5058840;28;20396;-72
2022/07/26 07:47:33;;;;;;;2.58;2.00;;;19.80;99.90;;;;;;4996193;28;1110828;-72
2022/07/26 07:50:05;;;;;;;3.28;2.20;;;19.90;99.90;;;;;;5065331;28;20032;-72
2022/07/26 07:52:38;;;;;;;3.97;2.57;;;19.90;99.90;;;;;;5036598;28;20055;-72
2022/07/26 07:55:09;;;;;;;2.97;2.45;;;19.90;99.90;;;;;;5042243;28;20378;-72
2022/07/26 07:57:41;;;;;;;5.32;2.60;;;20.00;99.90;;;;;;5043379;28;20049;-72
2022/07/26 08:00:15;;;;;;;4.38;2.42;;;20.10;99.90;;;;;;5034594;28;20510;-72
2022/07/26 08:02:47;;;;;;;2.75;2.28;;;20.20;99.90;;;;;;5061798;28;20037;-72
2022/07/26 08:05:19;;;;;;;2.70;2.22;;;20.40;99.90;;;;;;5058441;28;20056;-72
2022/07/26 08:07:50;;;;;;;5.80;3.70;;;20.50;99.90;;;;;;5030742;28;20068;-72
2022/07/26 08:10:22;;;;;;;4.53;2.63;;;20.70;99.90;;;;;;5048477;28;20043;-72
2022/07/26 08:12:54;;;;;;;4.05;2.42;;;20.80;99.90;;;;;;5064455;28;20040;-72
2022/07/26 08:15:26;;;;;;;4.03;2.55;;;20.80;99.90;;;;;;5034221;28;20045;-72
2022/07/26 08:17:58;;;;;;;3.00;2.58;;;20.80;99.90;;;;;;5058810;28;20045;-72
2022/07/26 08:20:29;;;;;;;3.00;2.35;;;20.80;99.90;;;;;;5042745;28;20048;-72
2022/07/26 08:23:01;;;;;;;3.75;2.42;;;20.80;99.90;;;;;;5050676;28;20045;-72
2022/07/26 08:25:33;;;;;;;2.50;2.20;;;20.80;99.90;;;;;;5040153;28;20044;-72
2022/07/26 08:28:05;;;;;;;4.82;2.78;;;20.90;99.90;;;;;;5041235;28;20047;-72
2022/07/26 08:30:36;;;;;;;3.40;2.40;;;20.90;99.90;;;;;;5049340;28;20045;-72
2022/07/26 08:33:08;;;;;;;4.00;2.17;;;20.90;99.90;;;;;;5038667;28;20036;-72
2022/07/26 08:35:40;;;;;;;4.40;2.25;;;20.80;99.90;;;;;;5057637;28;20549;-72
2022/07/26 08:38:12;;;;;;;2.53;1.90;;;20.70;99.90;;;;;;5030024;28;20049;-72
2022/07/26 08:40:43;;;;;;;3.05;2.55;;;20.80;99.90;;;;;;5059831;28;20052;-72
2022/07/26 08:43:15;;;;;;;2.88;2.53;;;20.90;99.90;;;;;;5058002;28;20043;-72
2022/07/26 08:45:48;;;;;;;3.50;2.17;;;20.90;99.90;;;;;;5037693;28;20048;-72
2022/07/26 08:48:20;;;;;;;;;;;21.00;99.90;;;;;;5038497;28;20141;-72
2022/07/26 08:50:56;;;;;;;5.78;2.40;;;21.10;99.90;;;;;;5026704;28;20372;-72
2022/07/26 08:53:29;;;;;;;3.80;2.45;;;21.20;99.90;;;;;;5048819;28;20132;-72
2022/07/26 08:56:01;;;;;;;3.40;2.00;;;21.30;99.90;;;;;;5058860;28;20440;-72
2022/07/26 08:58:35;;;;;;;2.85;2.45;;;21.30;99.90;;;;;;5062926;28;20354;-72
2022/07/26 09:01:12;;;;;;;3.40;2.33;;;21.30;99.90;;;;;;5027210;28;20077;-72
2022/07/26 09:03:44;;;;;;;3.95;2.28;;;21.30;99.90;;;;;;5067741;28;20037;-72
2022/07/26 09:06:19;;;;;;;3.45;2.15;;;21.50;99.90;;;;;;5042342;28;20048;-72
2022/07/26 09:08:52;;;;;;;4.30;2.70;;;21.60;99.90;;;;;;5048228;28;20496;-72
2022/07/26 09:11:25;;;;;;;;;;;21.70;99.90;;;;;;5040699;28;20060;-72
2022/07/26 09:14:02;;;;;;;2.97;2.38;;;21.80;99.90;;;;;;5070163;28;19921;-72
2022/07/26 09:16:34;;;;;;;3.63;2.55;;;21.90;99.90;;;;;;5045026;28;20041;-72
2022/07/26 09:19:21;;;;;;;5.60;2.38;;;22.00;99.90;;;;;;5061936;28;20053;-72
2022/07/26 09:21:54;;;;;;;3.63;2.65;;;22.10;99.90;;;;;;5029948;28;20055;-72
2022/07/26 09:24:30;;;;;;;;;;;22.40;99.90;;;;;;5061153;28;20048;-72
2022/07/26 09:27:04;;;;;;;4.78;2.72;;;22.40;99.90;;;;;;5033965;28;19920;-72
2022/07/26 09:29:52;;;;;;;3.15;2.47;;;22.50;99.90;;;;;;5055978;28;20408;-72
2022/07/26 09:32:25;;;;;;;3.72;2.50;;;22.40;99.90;;;;;;5027094;28;20049;-72
2022/07/26 09:35:15;;;;;;;4.28;2.55;;;22.60;99.90;;;;;;5046993;28;20033;-72
2022/07/26 09:37:47;;;;;;;3.08;2.08;;;22.60;99.90;;;;;;5057409;28;20036;-72
2022/07/26 09:40:19;;;;;;;4.90;2.58;;;22.30;99.90;;;;;;5054084;28;20060;-72
2022/07/26 09:43:00;;;;;;;4.53;3.20;;;22.30;99.90;;;;;;5065437;28;20048;-72
2022/07/26 09:45:34;;;;;;;3.30;3.00;;;22.30;99.90;;;;;;5055969;28;20044;-72
2022/07/26 09:48:10;;;;;;;3.78;2.90;;;22.30;99.90;;;;;;5053207;28;20037;-72
2022/07/26 09:50:47;;;;;;;2.65;2.22;;;22.40;99.90;;;;;;5055215;28;20068;-72
2022/07/26 09:53:21;;;;;;;4.93;2.70;;;22.40;99.90;;;;;;5055640;28;20053;-72
2022/07/26 09:55:55;;;;;;;3.20;2.40;;;22.40;99.90;;;;;;5052207;28;20048;-72
2022/07/26 09:58:28;;;;;;;4.82;2.47;;;22.40;99.90;;;;;;5062803;28;20049;-72
2022/07/26 10:00:59;;;;;;;4.28;2.50;;;22.30;99.90;;;;;;5045463;28;20044;-72
2022/07/26 10:03:33;;;;;;;4.53;2.33;;;22.30;99.90;;;;;;5062207;28;20489;-72
2022/07/26 10:06:05;;;;;;;2.88;2.60;;;22.30;99.90;;;;;;5059261;28;20047;-72
2022/07/26 10:08:32;;;;;;;2.65;2.05;;;22.40;99.90;;;;;;5054051;28;20511;-72
2022/07/26 10:11:07;;;;;;;3.22;2.35;;;22.40;99.90;;;;;;5048237;28;20059;-72
2022/07/26 10:13:39;;;;;;;3.53;2.55;;;22.40;99.90;;;;;;5051090;28;20059;-72
2022/07/26 10:16:30;;;;;;;4.55;2.25;;;22.50;99.90;;;;;;5047026;28;20067;-72
2022/07/26 10:19:03;;;;;;;5.00;2.63;;;22.50;99.90;;;;;;5061500;28;20044;-72
2022/07/26 10:21:34;;;;;;;4.87;2.40;;;22.50;99.90;;;;;;5060195;28;20045;-72
2022/07/26 10:24:25;;;;;;;2.85;1.95;;;22.50;99.90;;;;;;5057984;28;20299;-72
2022/07/26 10:26:52;;;;;;;4.55;2.30;;;22.50;99.90;;;;;;5059409;28;20046;-72
2022/07/26 10:29:26;;;;;;;3.25;2.22;;;22.60;99.90;;;;;;5046606;28;20138;-72
2022/07/26 10:32:14;;;;;;;4.03;2.30;;;22.60;99.90;;;;;;5053713;28;20382;-72
2022/07/26 10:34:46;;;;;;;3.13;2.40;;;22.50;99.90;;;;;;5064528;28;20527;-72
2022/07/26 10:37:26;;;;;;;3.80;2.60;;;22.60;99.90;;;;;;5029005;28;20059;-72
2022/07/26 10:40:17;;;;;;;3.60;2.20;;;22.90;99.90;;;;;;5062891;28;20041;-72
2022/07/26 10:42:48;;;;;;;3.00;2.10;;;23.20;99.90;;;;;;5043932;28;20051;-72
2022/07/26 10:45:22;;;;;;;4.47;2.67;;;23.50;99.90;;;;;;5060854;28;20102;-72
2022/07/26 10:48:17;;;;;;;4.07;2.38;;;23.80;99.90;;;;;;5065243;28;20416;-72
2022/07/26 10:50:51;;;;;;;3.92;2.78;;;23.90;99.90;;;;;;5031386;28;20038;-72
2022/07/26 10:53:26;;;;;;;2.53;2.30;;;23.90;99.90;;;;;;5049174;28;20049;-72
2022/07/26 10:56:00;;;;;;;2.92;2.55;;;23.90;99.90;;;;;;5051855;28;20055;-72
2022/07/26 10:58:42;;;;;;;2.30;2.00;;;23.90;99.90;;;;;;5061627;28;20055;-72
2022/07/26 11:01:09;;;;;;;5.00;2.35;;;23.90;99.90;;;;;;5046526;28;20051;-72
2022/07/26 11:03:42;;;;;;;3.33;2.13;;;23.80;99.90;;;;;;5055226;28;20075;-72
2022/07/26 11:06:16;;;;;;;5.63;2.20;;;24.00;99.90;;;;;;5052050;28;20041;-72
2022/07/26 11:08:49;;;;;;;4.07;2.03;;;24.20;99.90;;;;;;5045914;28;20055;-72
2022/07/26 11:11:27;;;;;;;2.45;2.22;;;24.20;99.90;;;;;;5025133;28;20630;-72
2022/07/26 11:14:25;;;;;;;2.67;2.30;;;24.20;99.90;;;;;;5042527;28;20051;-72
2022/07/26 11:16:57;;;;;;;7.22;2.95;;;24.50;99.90;;;;;;5059448;28;20052;-72
2022/07/26 11:19:24;;;;;;;3.92;2.60;;;24.50;99.90;;;;;;5060696;28;20036;-72
2022/07/26 11:22:00;;;;;;;3.33;2.20;;;24.40;99.90;;;;;;5063177;28;20040;-72
2022/07/26 11:24:39;;;;;;;5.15;2.63;;;24.50;99.90;;;;;;5030083;28;20038;-72
2022/07/26 11:27:11;;;;;;;2.60;2.22;;;24.40;99.90;;;;;;5068199;28;20040;-72
2022/07/26 11:29:43;;;;;;;3.13;2.20;;;24.30;99.90;;;;;;5086309;22;20051;-72
2022/07/26 11:32:18;;;;;;;2.63;2.30;;;24.30;99.90;;;;;;5049918;28;20423;-70
2022/07/26 11:35:04;;;;;;;5.25;2.35;;;24.40;99.90;;;;;;5060241;28;20048;-72
2022/07/26 11:37:35;;;;;;;3.00;2.35;;;24.50;99.90;;;;;;5042835;28;20041;-70
2022/07/26 11:40:07;;;;;;;2.78;2.15;;;24.70;99.90;;;;;;5071177;28;20048;-71
2022/07/26 11:42:39;;;;;;;3.38;2.15;;;24.80;99.90;;;;;;5065845;28;20491;-70
2022/07/26 11:45:11;;;;;;;2.92;2.22;;;24.90;99.90;;;;;;5063421;28;20044;-71
2022/07/26 11:47:43;;;;;;;3.72;2.10;;;25.10;99.90;;;;;;5062293;28;20573;-70
2022/07/26 11:50:15;;;;;;;2.42;2.20;;;25.30;99.90;;;;;;5058489;28;20045;-71
2022/07/26 11:52:41;;;;;;;1.92;1.63;;;25.20;99.90;;;;;;5084433;28;20043;-72
2022/07/26 11:55:13;;;;;;;3.13;2.40;;;25.10;99.90;;;;;;5080894;28;20037;-70
2022/07/26 11:57:45;;;;;;;2.70;1.95;;;25.10;99.90;;;;;;5083801;28;20054;-72
2022/07/26 12:00:17;;;;;;;3.15;2.00;;;25.00;99.90;;;;;;5071788;28;20052;-73
2022/07/26 12:02:49;;;;;;;3.87;2.07;;;25.00;99.90;;;;;;5079690;28;20051;-72
2022/07/26 12:05:22;;;;;;;2.60;2.00;;;25.00;99.90;;;;;;5076284;28;20055;-71
2022/07/26 12:08:01;;;;;;;2.78;2.05;;;25.00;99.90;;;;;;5080196;28;20040;-71
2022/07/26 12:10:33;;;;;;;3.03;2.20;;;25.30;99.90;;;;;;5077643;28;20039;-71
2022/07/26 12:13:10;;;;;;;5.10;2.22;;;25.50;99.90;;;;;;5079123;28;20032;-71
2022/07/26 12:15:46;;;;;;;2.90;1.80;;;25.40;98.50;;;;;;5080638;28;20051;-71
2022/07/26 12:18:32;;;;;;;1.98;1.73;;;25.40;97.30;;;;;;5077160;28;20115;-71
2022/07/26 12:21:07;;;;;;;3.55;1.92;;;25.40;97.10;;;;;;5078200;28;20071;-71
2022/07/26 12:23:48;;;;;;;3.25;1.75;;;25.40;97.60;;;;;;5082538;28;20033;-71
2022/07/26 12:26:21;;;;;;;2.78;1.73;;;25.40;96.90;;;;;;5076627;28;20036;-71
2022/07/26 12:28:47;;;;;;;3.55;1.88;;;25.30;95.80;;;;;;5079673;28;20048;-71
2022/07/26 12:31:28;;;;;;;3.58;1.88;;;25.40;95.30;;;;;;5081505;28;20044;-70
2022/07/26 12:34:00;;;;;;;6.10;1.70;;;25.30;94.40;;;;;;5062684;28;20411;-71
2022/07/26 12:36:33;;;;;;;2.80;2.03;;;25.30;94.90;;;;;;5080931;28;20044;-71
2022/07/26 12:39:04;;;;;;;2.30;1.67;;;25.30;95.70;;;;;;5084338;28;20044;-71
2022/07/26 12:41:38;;;;;;;3.10;1.70;;;25.40;94.80;;;;;;5088761;28;20050;-71
2022/07/26 12:44:11;;;;;;;4.43;2.00;;;25.40;93.40;;;;;;5082846;28;20512;-71
2022/07/26 12:46:43;;;;;;;3.45;2.10;;;25.50;94.00;;;;;;5064876;28;20477;-71
2022/07/26 12:49:15;;;;;;;3.63;1.75;;;25.70;94.20;;;;;;5080880;28;20055;-71
2022/07/26 12:51:47;;;;;;;3.15;1.95;;;26.10;93.30;;;;;;5078119;28;20043;-71
2022/07/26 12:54:19;;;;;;;2.80;1.90;;;26.40;92.00;;;;;;5080261;28;20044;-71
2022/07/26 12:56:50;;;;;;;1.73;1.63;;;26.40;91.70;;;;;;5065146;28;20044;-71
2022/07/26 12:59:22;;;;;;;2.33;1.33;;;26.50;91.40;;;;;;5079826;28;20407;-71
2022/07/26 13:01:54;;;;;;;1.85;1.60;;;26.30;87.90;;;;;;5081796;28;20040;-71
2022/07/26 13:04:26;;;;;;;4.15;1.70;;;26.20;89.80;;;;;;5074583;28;20084;-71
2022/07/26 13:06:58;;;;;;;2.17;1.48;;;26.00;87.50;;;;;;5061711;28;20440;-71
2022/07/26 13:09:32;;;;;;;5.07;2.03;;;25.90;87.10;;;;;;5075030;28;20036;-71
2022/07/26 13:12:05;;;;;;;1.83;1.40;;;26.00;89.90;;;;;;5064275;28;20503;-71